createdAt,value
2023-01-21T00:00:09.835Z,28.30
2023-01-21T00:05:11.437Z,33.73
2023-01-21T00:10:13.079Z,37.33
2023-01-21T00:15:15.121Z,36.25
2023-01-21T00:20:17.265Z,40.40
2023-01-21T00:25:18.993Z,36.83
2023-01-21T00:30:20.638Z,38.43
2023-01-21T00:35:22.248Z,37.63
2023-01-21T00:40:24.189Z,26.50
2023-01-21T00:45:25.844Z,37.93
2023-01-21T00:50:27.440Z,31.00
2023-01-21T00:55:29.032Z,30.52
2023-01-21T01:00:31.012Z,31.45
2023-01-21T01:05:33.183Z,32.30
2023-01-21T01:10:37.371Z,35.83
2023-01-21T01:15:39.030Z,38.33
2023-01-21T01:20:44.438Z,30.48
2023-01-21T01:25:57.188Z,35.72
2023-01-21T01:30:59.798Z,44.13
2023-01-21T01:36:03.345Z,33.10
2023-01-21T01:41:05.275Z,36.07
2023-01-21T01:46:06.977Z,40.65
2023-01-21T01:51:09.596Z,37.72
2023-01-21T01:56:12.143Z,34.67
2023-01-21T02:01:13.908Z,30.38
2023-01-21T02:06:18.325Z,35.73
2023-01-21T02:11:20.674Z,39.97
2023-01-21T02:16:40.980Z,41.70
2023-01-21T02:21:58.126Z,44.60
2023-01-21T02:27:18.552Z,44.07
2023-01-21T02:32:50.929Z,38.38
2023-01-21T02:37:58.185Z,54.22
2023-01-21T02:43:09.454Z,43.43
2023-01-21T02:48:16.856Z,41.73
2023-01-21T02:53:39.023Z,42.90
2023-01-21T02:58:46.096Z,37.57
2023-01-21T03:03:54.473Z,41.55
2023-01-21T03:09:03.689Z,31.77
2023-01-21T03:14:33.056Z,37.63
2023-01-21T03:19:45.073Z,33.55
2023-01-21T03:24:51.786Z,33.33
2023-01-21T03:29:58.263Z,28.75
2023-01-21T03:35:03.961Z,24.27
2023-01-21T03:40:19.282Z,33.28
2023-01-21T03:45:30.925Z,28.40
2023-01-21T03:50:41.056Z,25.55
2023-01-21T03:55:42.648Z,24.97
2023-01-21T04:00:46.239Z,26.00
2023-01-21T04:05:47.984Z,29.67
2023-01-21T04:10:49.593Z,27.87
2023-01-21T04:15:51.183Z,28.03
2023-01-21T04:20:52.975Z,26.38
2023-01-21T04:25:54.672Z,28.15
2023-01-21T04:30:56.311Z,26.73
2023-01-21T04:35:59.650Z,27.33
2023-01-21T04:41:01.284Z,33.67
2023-01-21T04:46:03.038Z,32.65
2023-01-21T04:51:06.529Z,28.17
2023-01-21T04:56:08.378Z,27.70
2023-01-21T05:01:10.061Z,23.30
2023-01-21T05:06:11.741Z,25.15
2023-01-21T05:11:16.567Z,20.50
2023-01-21T05:16:18.194Z,29.00
2023-01-21T05:21:19.839Z,21.88
2023-01-21T05:26:21.578Z,18.93
2023-01-21T05:31:23.274Z,24.95
2023-01-21T05:36:25.057Z,34.03
2023-01-21T05:41:26.725Z,33.50
2023-01-21T05:46:28.437Z,33.40
2023-01-21T05:51:30.059Z,30.30
2023-01-21T05:56:31.695Z,29.37
2023-01-21T06:01:33.352Z,31.13
2023-01-21T06:06:35.067Z,27.63
2023-01-21T06:11:36.714Z,36.08
2023-01-21T06:16:38.307Z,34.93
2023-01-21T06:21:40.146Z,40.30
2023-01-21T06:26:41.792Z,39.90
2023-01-21T06:31:43.472Z,45.57
2023-01-21T06:36:45.111Z,35.50
2023-01-21T06:41:46.745Z,38.03
2023-01-21T06:47:00.069Z,43.00
2023-01-21T06:52:02.464Z,45.63
2023-01-21T06:57:04.091Z,45.58
2023-01-21T07:02:06.741Z,42.83
2023-01-21T07:07:08.361Z,40.15
2023-01-21T07:12:10.221Z,42.23
2023-01-21T07:17:11.890Z,33.85
2023-01-21T07:22:13.504Z,33.43
2023-01-21T07:27:15.175Z,33.70
2023-01-21T07:32:16.912Z,24.37
2023-01-21T07:37:18.527Z,29.50
2023-01-21T07:42:20.183Z,28.50
2023-01-21T07:47:23.184Z,29.25
2023-01-21T07:52:24.922Z,26.77
2023-01-21T07:57:26.518Z,23.17
2023-01-21T08:02:28.272Z,25.38
2023-01-21T08:07:29.939Z,31.35
2023-01-21T08:12:31.553Z,25.65
2023-01-21T08:17:33.421Z,26.07
2023-01-21T08:22:35.463Z,31.43
2023-01-21T08:27:37.103Z,27.00
2023-01-21T08:32:38.756Z,28.60
2023-01-21T08:37:40.493Z,26.97
2023-01-21T08:42:42.122Z,28.88
2023-01-21T08:47:43.960Z,29.98
2023-01-21T08:52:55.738Z,39.83
2023-01-21T08:57:58.508Z,34.22
2023-01-21T09:03:00.365Z,31.20
2023-01-21T09:08:02.001Z,29.88
2023-01-21T09:13:10.388Z,31.05
2023-01-21T09:18:12.457Z,34.00
2023-01-21T09:23:26.773Z,30.85
2023-01-21T09:28:28.424Z,28.73
2023-01-21T09:33:31.743Z,34.75
2023-01-21T09:38:34.129Z,23.52
2023-01-21T09:43:41.739Z,25.23
2023-01-21T09:48:46.614Z,28.75
2023-01-21T09:53:52.380Z,22.00
2023-01-21T09:59:09.382Z,24.70
2023-01-21T10:04:48.151Z,23.70
2023-01-21T10:10:16.998Z,25.98
2023-01-21T10:15:24.628Z,30.90
2023-01-21T10:20:33.953Z,27.73
2023-01-21T10:25:37.517Z,26.80
2023-01-21T10:30:43.971Z,24.00
2023-01-21T10:36:05.232Z,22.58
2023-01-21T10:41:24.722Z,27.52
2023-01-21T10:46:39.421Z,23.42
2023-01-21T10:51:51.035Z,22.25
2023-01-21T10:57:40.165Z,23.45
2023-01-21T11:02:42.178Z,24.95
2023-01-21T11:07:44.514Z,21.85
2023-01-21T11:12:46.301Z,23.70
2023-01-21T11:17:51.927Z,22.00
2023-01-21T11:22:53.559Z,19.95
2023-01-21T11:27:55.203Z,24.40
2023-01-21T11:33:12.748Z,28.83
2023-01-21T11:38:34.089Z,20.48
2023-01-21T11:43:45.743Z,20.20
2023-01-21T11:48:48.606Z,21.02
2023-01-21T11:54:06.472Z,20.27
2023-01-21T11:59:24.296Z,25.17
2023-01-21T12:04:26.807Z,20.50
2023-01-21T12:09:29.231Z,22.40
2023-01-21T12:14:42.810Z,25.13
2023-01-21T12:20:05.960Z,18.80
2023-01-21T12:25:17.396Z,19.65
2023-01-21T12:30:19.149Z,19.85
2023-01-21T12:35:34.186Z,19.98
2023-01-21T12:41:00.563Z,20.77
2023-01-21T12:46:10.603Z,24.17
2023-01-21T12:51:22.087Z,20.20
2023-01-21T12:56:40.902Z,20.30
2023-01-21T13:01:55.757Z,19.33
2023-01-21T13:07:06.402Z,21.73
2023-01-21T13:12:25.792Z,21.40
2023-01-21T13:17:42.422Z,18.42
2023-01-21T13:23:08.165Z,18.08
2023-01-21T13:28:19.809Z,18.73
2023-01-21T13:33:25.064Z,18.55
2023-01-21T13:38:29.476Z,18.77
2023-01-21T13:44:00.960Z,22.15
2023-01-21T13:49:17.674Z,20.02
2023-01-21T13:55:05.625Z,18.17
2023-01-21T14:00:15.990Z,20.97
2023-01-21T14:05:41.684Z,20.58
2023-01-21T14:10:53.699Z,27.13
2023-01-21T14:16:17.359Z,25.60
2023-01-21T14:21:43.371Z,21.88
2023-01-21T14:27:08.069Z,22.50
2023-01-21T14:32:21.775Z,23.50
2023-01-21T14:37:35.065Z,19.63
2023-01-21T14:42:42.843Z,19.42
2023-01-21T14:47:49.679Z,25.90
2023-01-21T14:52:51.291Z,17.63
2023-01-21T14:57:54.736Z,16.52
2023-01-21T15:03:02.523Z,17.45
2023-01-21T15:08:12.778Z,19.98
2023-01-21T15:13:27.898Z,19.25
2023-01-21T15:18:41.465Z,16.65
2023-01-21T15:23:43.284Z,16.50
2023-01-21T15:28:55.926Z,14.88
2023-01-21T15:34:00.790Z,15.30
2023-01-21T15:39:24.184Z,15.60
2023-01-21T15:44:53.411Z,14.27
2023-01-21T15:50:05.585Z,17.77
2023-01-21T15:55:21.375Z,17.13
2023-01-21T16:00:32.946Z,14.52
2023-01-21T16:05:45.603Z,15.77
2023-01-21T16:11:02.300Z,15.23
2023-01-21T16:16:23.399Z,11.32
2023-01-21T16:21:40.295Z,11.68
2023-01-21T16:26:41.886Z,10.77
2023-01-21T16:32:00.738Z,10.32
2023-01-21T16:37:06.170Z,12.10
2023-01-21T16:42:22.705Z,9.07
2023-01-21T16:47:28.605Z,8.63
2023-01-21T16:52:30.662Z,7.30
2023-01-21T16:57:32.419Z,8.35
2023-01-21T17:02:34.364Z,9.07
2023-01-21T17:07:43.123Z,7.47
2023-01-21T17:13:05.992Z,7.30
2023-01-21T17:18:24.433Z,6.88
2023-01-21T17:23:30.232Z,6.85
2023-01-21T17:28:44.371Z,5.85
2023-01-21T17:33:59.743Z,6.95
2023-01-21T17:39:02.147Z,7.50
2023-01-21T17:44:07.191Z,7.22
2023-01-21T17:49:13.484Z,5.38
2023-01-21T17:54:21.557Z,5.15
2023-01-21T17:59:37.641Z,5.05
2023-01-21T18:04:39.828Z,5.78
2023-01-21T18:09:41.551Z,5.32
2023-01-21T18:14:43.415Z,6.13
2023-01-21T18:19:45.094Z,4.80
2023-01-21T18:24:46.754Z,5.20
2023-01-21T18:29:48.411Z,5.97
2023-01-21T18:34:50.149Z,5.45
2023-01-21T18:39:51.748Z,5.88
2023-01-21T18:44:53.356Z,4.82
2023-01-21T18:49:55.017Z,5.32
2023-01-21T18:54:58.180Z,4.50
2023-01-21T19:00:00.269Z,4.63
2023-01-21T19:05:01.916Z,4.53
2023-01-21T19:10:03.948Z,7.38
2023-01-21T19:15:08.102Z,4.47
2023-01-21T19:20:20.514Z,4.50
2023-01-21T19:25:25.168Z,3.95
2023-01-21T19:30:29.613Z,4.68
2023-01-21T19:35:35.660Z,5.37
2023-01-21T19:40:37.644Z,5.10
2023-01-21T19:45:39.265Z,5.70
2023-01-21T19:50:41.424Z,4.70
2023-01-21T19:55:45.512Z,5.13
2023-01-21T20:00:49.355Z,4.30
2023-01-21T20:05:59.299Z,5.25
2023-01-21T20:11:00.901Z,7.97
2023-01-21T20:16:14.226Z,5.82
2023-01-21T20:21:16.459Z,5.90
2023-01-21T20:26:24.515Z,5.93
2023-01-21T20:31:26.177Z,5.53
2023-01-21T20:36:28.159Z,5.78
2023-01-21T20:41:29.860Z,6.30
2023-01-21T20:46:31.675Z,7.68
2023-01-21T20:51:33.275Z,5.90
2023-01-21T20:56:35.124Z,6.90
2023-01-21T21:01:39.431Z,7.00
2023-01-21T21:06:41.055Z,6.18
2023-01-21T21:11:42.688Z,7.70
2023-01-21T21:16:44.405Z,6.47
2023-01-21T21:21:46.742Z,6.90
2023-01-21T21:26:48.356Z,10.10
2023-01-21T21:31:50.078Z,8.47
2023-01-21T21:36:51.783Z,7.57
2023-01-21T21:42:12.322Z,6.88
2023-01-21T21:47:33.588Z,6.70
2023-01-21T21:52:35.203Z,6.90
2023-01-21T21:57:36.819Z,8.65
2023-01-21T22:02:38.510Z,6.87
2023-01-21T22:07:40.216Z,7.07
2023-01-21T22:12:41.983Z,6.57
2023-01-21T22:17:43.625Z,6.28
2023-01-21T22:22:45.287Z,7.30
2023-01-21T22:27:46.909Z,7.85
2023-01-21T22:32:48.531Z,7.22
2023-01-21T22:37:50.228Z,7.27
2023-01-21T22:42:51.840Z,7.00
2023-01-21T22:47:53.437Z,8.68
2023-01-21T22:52:55.038Z,8.80
2023-01-21T22:57:56.638Z,6.50
2023-01-21T23:02:58.698Z,6.27
2023-01-21T23:13:06.998Z,6.43
2023-01-21T23:18:08.843Z,6.63
2023-01-21T23:23:12.199Z,6.37
2023-01-21T23:28:14.924Z,6.17
2023-01-21T23:33:16.508Z,6.15
2023-01-21T23:38:18.137Z,7.22
2023-01-21T23:43:24.170Z,7.33
2023-01-21T23:48:25.755Z,6.55
2023-01-21T23:53:27.351Z,7.67
2023-01-21T23:58:28.980Z,8.57
